sensor_id;sensor_type;location;lat;lon;timestamp;temperature;humidity
546;DHT22;259;53.304;9.816;2023-05-07T00:01:42;16.00;73.00
546;DHT22;259;53.304;9.816;2023-05-07T00:04:08;16.00;73.00
546;DHT22;259;53.304;9.816;2023-05-07T00:06:33;15.90;72.90
546;DHT22;259;53.304;9.816;2023-05-07T00:08:59;16.00;72.80
546;DHT22;259;53.304;9.816;2023-05-07T00:11:26;16.00;72.80
546;DHT22;259;53.304;9.816;2023-05-07T00:13:53;15.90;72.60
546;DHT22;259;53.304;9.816;2023-05-07T00:16:19;15.90;72.50
546;DHT22;259;53.304;9.816;2023-05-07T00:18:45;15.90;72.60
546;DHT22;259;53.304;9.816;2023-05-07T00:21:11;15.90;72.50
546;DHT22;259;53.304;9.816;2023-05-07T00:23:36;15.90;72.50
546;DHT22;259;53.304;9.816;2023-05-07T00:26:03;15.90;72.50
546;DHT22;259;53.304;9.816;2023-05-07T00:28:29;15.90;72.50
546;DHT22;259;53.304;9.816;2023-05-07T00:30:55;15.90;72.60
546;DHT22;259;53.304;9.816;2023-05-07T00:33:21;15.80;72.50
546;DHT22;259;53.304;9.816;2023-05-07T00:35:48;15.80;72.50
546;DHT22;259;53.304;9.816;2023-05-07T00:38:13;15.80;72.50
546;DHT22;259;53.304;9.816;2023-05-07T00:40:39;15.80;72.50
546;DHT22;259;53.304;9.816;2023-05-07T00:43:06;15.80;72.60
546;DHT22;259;53.304;9.816;2023-05-07T00:45:33;15.80;72.60
546;DHT22;259;53.304;9.816;2023-05-07T00:48:02;15.80;72.60
546;DHT22;259;53.304;9.816;2023-05-07T00:50:29;15.80;72.60
546;DHT22;259;53.304;9.816;2023-05-07T00:52:55;15.70;72.40
546;DHT22;259;53.304;9.816;2023-05-07T00:55:22;15.70;72.60
546;DHT22;259;53.304;9.816;2023-05-07T00:57:50;15.70;73.40
546;DHT22;259;53.304;9.816;2023-05-07T01:00:17;15.70;72.60
546;DHT22;259;53.304;9.816;2023-05-07T01:02:43;15.70;72.60
546;DHT22;259;53.304;9.816;2023-05-07T01:05:12;15.70;72.60
546;DHT22;259;53.304;9.816;2023-05-07T01:07:40;15.70;72.70
546;DHT22;259;53.304;9.816;2023-05-07T01:10:08;15.70;72.60
546;DHT22;259;53.304;9.816;2023-05-07T01:12:37;15.60;72.60
546;DHT22;259;53.304;9.816;2023-05-07T01:15:04;15.60;72.60
546;DHT22;259;53.304;9.816;2023-05-07T01:17:35;15.60;72.60
546;DHT22;259;53.304;9.816;2023-05-07T01:20:01;15.60;72.60
546;DHT22;259;53.304;9.816;2023-05-07T01:22:33;15.60;72.70
546;DHT22;259;53.304;9.816;2023-05-07T01:25:00;15.60;72.80
546;DHT22;259;53.304;9.816;2023-05-07T01:27:27;15.50;72.70
546;DHT22;259;53.304;9.816;2023-05-07T01:29:53;15.50;72.60
546;DHT22;259;53.304;9.816;2023-05-07T01:35:11;15.50;72.70
546;DHT22;259;53.304;9.816;2023-05-07T01:37:39;15.50;72.70
546;DHT22;259;53.304;9.816;2023-05-07T01:40:05;15.50;72.70
546;DHT22;259;53.304;9.816;2023-05-07T01:42:32;15.50;72.70
546;DHT22;259;53.304;9.816;2023-05-07T01:44:58;15.50;73.00
546;DHT22;259;53.304;9.816;2023-05-07T01:47:24;15.50;72.90
546;DHT22;259;53.304;9.816;2023-05-07T01:49:50;15.40;72.90
546;DHT22;259;53.304;9.816;2023-05-07T01:52:16;15.40;72.90
546;DHT22;259;53.304;9.816;2023-05-07T01:54:42;15.40;72.80
546;DHT22;259;53.304;9.816;2023-05-07T01:57:08;15.40;72.90
546;DHT22;259;53.304;9.816;2023-05-07T01:59:33;15.40;72.90
546;DHT22;259;53.304;9.816;2023-05-07T02:01:59;15.40;72.80
546;DHT22;259;53.304;9.816;2023-05-07T02:04:26;15.40;72.80
546;DHT22;259;53.304;9.816;2023-05-07T02:06:51;15.40;72.90
546;DHT22;259;53.304;9.816;2023-05-07T02:09:18;15.40;72.80
546;DHT22;259;53.304;9.816;2023-05-07T02:11:44;15.40;73.00
546;DHT22;259;53.304;9.816;2023-05-07T02:14:10;15.30;72.80
546;DHT22;259;53.304;9.816;2023-05-07T02:16:35;15.30;72.90
546;DHT22;259;53.304;9.816;2023-05-07T02:19:01;15.30;73.10
546;DHT22;259;53.304;9.816;2023-05-07T02:21:27;15.30;73.20
546;DHT22;259;53.304;9.816;2023-05-07T02:23:53;15.30;73.30
546;DHT22;259;53.304;9.816;2023-05-07T02:26:19;15.30;73.40
546;DHT22;259;53.304;9.816;2023-05-07T02:28:45;15.30;73.20
546;DHT22;259;53.304;9.816;2023-05-07T02:31:10;15.30;73.20
546;DHT22;259;53.304;9.816;2023-05-07T02:33:36;15.30;73.10
546;DHT22;259;53.304;9.816;2023-05-07T02:36:06;15.30;73.10
546;DHT22;259;53.304;9.816;2023-05-07T02:38:32;15.30;73.00
546;DHT22;259;53.304;9.816;2023-05-07T02:40:58;15.30;73.00
546;DHT22;259;53.304;9.816;2023-05-07T02:43:24;15.30;72.90
546;DHT22;259;53.304;9.816;2023-05-07T02:45:49;15.20;72.90
546;DHT22;259;53.304;9.816;2023-05-07T02:48:25;15.20;72.80
546;DHT22;259;53.304;9.816;2023-05-07T02:50:51;15.20;72.70
546;DHT22;259;53.304;9.816;2023-05-07T02:53:17;15.20;72.80
546;DHT22;259;53.304;9.816;2023-05-07T02:55:42;15.20;73.00
546;DHT22;259;53.304;9.816;2023-05-07T02:58:09;15.20;72.90
546;DHT22;259;53.304;9.816;2023-05-07T03:00:34;15.20;72.90
546;DHT22;259;53.304;9.816;2023-05-07T03:03:00;15.20;72.90
546;DHT22;259;53.304;9.816;2023-05-07T03:05:26;15.10;72.80
546;DHT22;259;53.304;9.816;2023-05-07T03:07:51;15.10;72.90
546;DHT22;259;53.304;9.816;2023-05-07T03:10:17;15.10;72.90
546;DHT22;259;53.304;9.816;2023-05-07T03:12:43;15.10;72.80
546;DHT22;259;53.304;9.816;2023-05-07T03:15:09;15.10;73.00
546;DHT22;259;53.304;9.816;2023-05-07T03:17:38;15.10;72.90
546;DHT22;259;53.304;9.816;2023-05-07T03:20:04;15.10;72.90
546;DHT22;259;53.304;9.816;2023-05-07T03:22:32;15.10;73.00
546;DHT22;259;53.304;9.816;2023-05-07T03:24:58;15.10;73.00
546;DHT22;259;53.304;9.816;2023-05-07T03:27:23;15.10;73.00
546;DHT22;259;53.304;9.816;2023-05-07T03:29:49;15.00;72.90
546;DHT22;259;53.304;9.816;2023-05-07T03:32:15;15.00;72.80
546;DHT22;259;53.304;9.816;2023-05-07T03:34:41;15.00;72.90
546;DHT22;259;53.304;9.816;2023-05-07T03:37:06;15.00;72.90
546;DHT22;259;53.304;9.816;2023-05-07T03:39:32;15.00;72.80
546;DHT22;259;53.304;9.816;2023-05-07T03:41:58;15.00;72.90
546;DHT22;259;53.304;9.816;2023-05-07T03:44:24;15.00;72.90
546;DHT22;259;53.304;9.816;2023-05-07T03:46:49;15.00;72.90
546;DHT22;259;53.304;9.816;2023-05-07T03:49:15;15.00;72.90
546;DHT22;259;53.304;9.816;2023-05-07T03:51:41;14.90;72.90
546;DHT22;259;53.304;9.816;2023-05-07T03:54:07;14.90;72.80
546;DHT22;259;53.304;9.816;2023-05-07T03:56:32;14.90;72.80
546;DHT22;259;53.304;9.816;2023-05-07T03:58:58;14.90;72.90
546;DHT22;259;53.304;9.816;2023-05-07T04:01:25;14.90;73.00
546;DHT22;259;53.304;9.816;2023-05-07T04:03:51;14.90;72.90
546;DHT22;259;53.304;9.816;2023-05-07T04:06:16;14.90;72.80
546;DHT22;259;53.304;9.816;2023-05-07T04:08:43;14.90;73.00
546;DHT22;259;53.304;9.816;2023-05-07T04:11:08;14.90;72.90
546;DHT22;259;53.304;9.816;2023-05-07T04:13:34;14.90;73.00
546;DHT22;259;53.304;9.816;2023-05-07T04:16:01;14.80;72.90
546;DHT22;259;53.304;9.816;2023-05-07T04:18:28;14.80;73.20
546;DHT22;259;53.304;9.816;2023-05-07T04:20:54;14.80;73.00
546;DHT22;259;53.304;9.816;2023-05-07T04:23:20;14.80;73.20
546;DHT22;259;53.304;9.816;2023-05-07T04:25:45;14.80;73.00
546;DHT22;259;53.304;9.816;2023-05-07T04:28:11;14.80;73.10
546;DHT22;259;53.304;9.816;2023-05-07T04:30:38;14.80;72.90
546;DHT22;259;53.304;9.816;2023-05-07T04:33:04;14.80;73.00
546;DHT22;259;53.304;9.816;2023-05-07T04:35:29;14.80;72.90
546;DHT22;259;53.304;9.816;2023-05-07T04:37:55;14.80;73.00
546;DHT22;259;53.304;9.816;2023-05-07T04:40:21;14.80;73.20
546;DHT22;259;53.304;9.816;2023-05-07T04:42:46;14.80;73.00
546;DHT22;259;53.304;9.816;2023-05-07T04:45:12;14.70;73.00
546;DHT22;259;53.304;9.816;2023-05-07T04:47:38;14.70;73.20
546;DHT22;259;53.304;9.816;2023-05-07T04:50:05;14.70;73.20
546;DHT22;259;53.304;9.816;2023-05-07T04:52:32;14.70;73.20
546;DHT22;259;53.304;9.816;2023-05-07T04:54:59;14.70;73.40
546;DHT22;259;53.304;9.816;2023-05-07T04:57:26;14.70;73.50
546;DHT22;259;53.304;9.816;2023-05-07T04:59:52;14.70;73.50
546;DHT22;259;53.304;9.816;2023-05-07T05:02:18;14.70;73.50
546;DHT22;259;53.304;9.816;2023-05-07T05:04:44;14.70;73.40
546;DHT22;259;53.304;9.816;2023-05-07T05:07:10;14.70;73.40
546;DHT22;259;53.304;9.816;2023-05-07T05:09:36;14.70;73.40
546;DHT22;259;53.304;9.816;2023-05-07T05:12:02;14.70;73.20
546;DHT22;259;53.304;9.816;2023-05-07T05:14:28;14.70;73.20
546;DHT22;259;53.304;9.816;2023-05-07T05:16:54;14.70;73.30
546;DHT22;259;53.304;9.816;2023-05-07T05:19:20;14.70;73.30
546;DHT22;259;53.304;9.816;2023-05-07T05:21:46;14.70;73.10
546;DHT22;259;53.304;9.816;2023-05-07T05:24:12;14.60;73.00
546;DHT22;259;53.304;9.816;2023-05-07T05:26:37;14.60;73.10
546;DHT22;259;53.304;9.816;2023-05-07T05:29:03;14.60;73.20
546;DHT22;259;53.304;9.816;2023-05-07T05:31:29;14.60;73.10
546;DHT22;259;53.304;9.816;2023-05-07T05:33:55;14.60;73.10
546;DHT22;259;53.304;9.816;2023-05-07T05:36:20;14.60;73.10
546;DHT22;259;53.304;9.816;2023-05-07T05:38:46;14.60;73.20
546;DHT22;259;53.304;9.816;2023-05-07T05:41:12;14.60;73.00
546;DHT22;259;53.304;9.816;2023-05-07T05:43:37;14.60;73.10
546;DHT22;259;53.304;9.816;2023-05-07T05:46:03;14.60;73.10
546;DHT22;259;53.304;9.816;2023-05-07T05:48:30;14.60;73.20
546;DHT22;259;53.304;9.816;2023-05-07T05:50:55;14.50;73.00
546;DHT22;259;53.304;9.816;2023-05-07T05:53:21;14.50;73.10
546;DHT22;259;53.304;9.816;2023-05-07T05:55:47;14.50;73.20
546;DHT22;259;53.304;9.816;2023-05-07T05:58:13;14.50;73.30
546;DHT22;259;53.304;9.816;2023-05-07T06:00:40;14.50;73.30
546;DHT22;259;53.304;9.816;2023-05-07T06:03:06;14.50;73.40
546;DHT22;259;53.304;9.816;2023-05-07T06:05:31;14.50;73.40
546;DHT22;259;53.304;9.816;2023-05-07T06:07:57;14.50;73.40
546;DHT22;259;53.304;9.816;2023-05-07T06:10:23;14.50;73.20
546;DHT22;259;53.304;9.816;2023-05-07T06:12:49;14.50;73.40
546;DHT22;259;53.304;9.816;2023-05-07T06:15:15;14.40;73.20
546;DHT22;259;53.304;9.816;2023-05-07T06:17:40;14.50;73.30
546;DHT22;259;53.304;9.816;2023-05-07T06:20:06;14.40;73.20
546;DHT22;259;53.304;9.816;2023-05-07T06:22:32;14.40;73.20
546;DHT22;259;53.304;9.816;2023-05-07T06:24:58;14.40;73.10
546;DHT22;259;53.304;9.816;2023-05-07T06:27:24;14.40;73.30
546;DHT22;259;53.304;9.816;2023-05-07T06:29:50;14.40;73.30
546;DHT22;259;53.304;9.816;2023-05-07T06:32:15;14.40;73.40
546;DHT22;259;53.304;9.816;2023-05-07T06:34:42;14.40;73.30
546;DHT22;259;53.304;9.816;2023-05-07T06:37:08;14.40;73.20
546;DHT22;259;53.304;9.816;2023-05-07T06:39:33;14.40;73.20
546;DHT22;259;53.304;9.816;2023-05-07T06:42:00;14.40;73.40
546;DHT22;259;53.304;9.816;2023-05-07T06:44:27;14.40;73.40
546;DHT22;259;53.304;9.816;2023-05-07T06:46:53;14.40;73.50
546;DHT22;259;53.304;9.816;2023-05-07T06:49:18;14.40;73.40
546;DHT22;259;53.304;9.816;2023-05-07T06:51:44;14.40;73.40
546;DHT22;259;53.304;9.816;2023-05-07T06:54:10;14.40;73.50
546;DHT22;259;53.304;9.816;2023-05-07T06:56:36;14.40;73.40
546;DHT22;259;53.304;9.816;2023-05-07T06:59:02;14.40;73.30
546;DHT22;259;53.304;9.816;2023-05-07T07:01:28;14.40;73.40
546;DHT22;259;53.304;9.816;2023-05-07T07:03:54;14.40;73.50
546;DHT22;259;53.304;9.816;2023-05-07T07:06:20;14.40;73.50
546;DHT22;259;53.304;9.816;2023-05-07T07:08:45;14.40;73.60
546;DHT22;259;53.304;9.816;2023-05-07T07:11:11;14.30;73.40
546;DHT22;259;53.304;9.816;2023-05-07T07:13:37;14.30;73.40
546;DHT22;259;53.304;9.816;2023-05-07T07:16:03;14.30;73.30
546;DHT22;259;53.304;9.816;2023-05-07T07:18:29;14.30;73.50
546;DHT22;259;53.304;9.816;2023-05-07T07:20:54;14.30;73.50
546;DHT22;259;53.304;9.816;2023-05-07T07:23:20;14.30;73.40
546;DHT22;259;53.304;9.816;2023-05-07T07:25:46;14.30;73.50
546;DHT22;259;53.304;9.816;2023-05-07T07:28:12;14.30;73.60
546;DHT22;259;53.304;9.816;2023-05-07T07:30:38;14.30;73.60
546;DHT22;259;53.304;9.816;2023-05-07T07:33:04;14.30;73.50
546;DHT22;259;53.304;9.816;2023-05-07T07:35:31;14.30;73.50
546;DHT22;259;53.304;9.816;2023-05-07T07:37:57;14.30;73.60
546;DHT22;259;53.304;9.816;2023-05-07T07:40:23;14.30;73.70
546;DHT22;259;53.304;9.816;2023-05-07T07:42:49;14.30;73.70
546;DHT22;259;53.304;9.816;2023-05-07T07:45:14;14.30;73.70
546;DHT22;259;53.304;9.816;2023-05-07T07:47:40;14.30;73.90
546;DHT22;259;53.304;9.816;2023-05-07T07:50:07;14.30;74.00
546;DHT22;259;53.304;9.816;2023-05-07T07:52:33;14.30;73.90
546;DHT22;259;53.304;9.816;2023-05-07T07:54:59;14.30;73.90
546;DHT22;259;53.304;9.816;2023-05-07T07:57:24;14.30;73.70
546;DHT22;259;53.304;9.816;2023-05-07T07:59:50;14.30;73.80
546;DHT22;259;53.304;9.816;2023-05-07T08:02:16;14.30;73.60
546;DHT22;259;53.304;9.816;2023-05-07T08:04:42;14.30;73.60
546;DHT22;259;53.304;9.816;2023-05-07T08:07:11;14.30;73.60
546;DHT22;259;53.304;9.816;2023-05-07T08:09:38;14.30;73.50
546;DHT22;259;53.304;9.816;2023-05-07T08:12:07;14.30;73.40
546;DHT22;259;53.304;9.816;2023-05-07T08:14:33;14.30;74.10
546;DHT22;259;53.304;9.816;2023-05-07T08:16:59;14.30;73.60
546;DHT22;259;53.304;9.816;2023-05-07T08:19:25;14.30;73.70
546;DHT22;259;53.304;9.816;2023-05-07T08:21:51;14.30;73.80
546;DHT22;259;53.304;9.816;2023-05-07T08:24:17;14.30;73.90
546;DHT22;259;53.304;9.816;2023-05-07T08:26:44;14.30;73.90
546;DHT22;259;53.304;9.816;2023-05-07T08:29:10;14.30;73.80
546;DHT22;259;53.304;9.816;2023-05-07T08:31:36;14.30;73.80
546;DHT22;259;53.304;9.816;2023-05-07T08:34:04;14.30;73.60
546;DHT22;259;53.304;9.816;2023-05-07T08:36:30;14.30;73.70
546;DHT22;259;53.304;9.816;2023-05-07T08:38:56;14.30;73.60
546;DHT22;259;53.304;9.816;2023-05-07T08:41:21;14.30;73.60
546;DHT22;259;53.304;9.816;2023-05-07T08:43:50;14.30;73.60
546;DHT22;259;53.304;9.816;2023-05-07T08:46:20;14.30;73.50
546;DHT22;259;53.304;9.816;2023-05-07T08:48:50;14.30;73.60
546;DHT22;259;53.304;9.816;2023-05-07T08:51:20;14.30;73.70
546;DHT22;259;53.304;9.816;2023-05-07T08:53:48;14.30;73.70
546;DHT22;259;53.304;9.816;2023-05-07T08:56:15;14.30;73.50
546;DHT22;259;53.304;9.816;2023-05-07T08:58:45;14.30;73.50
546;DHT22;259;53.304;9.816;2023-05-07T09:01:14;14.30;73.50
546;DHT22;259;53.304;9.816;2023-05-07T09:03:43;14.30;73.50
546;DHT22;259;53.304;9.816;2023-05-07T09:06:10;14.30;73.60
546;DHT22;259;53.304;9.816;2023-05-07T09:08:36;14.30;73.50
546;DHT22;259;53.304;9.816;2023-05-07T09:11:02;14.30;73.50
546;DHT22;259;53.304;9.816;2023-05-07T09:13:28;14.30;73.40
546;DHT22;259;53.304;9.816;2023-05-07T09:15:55;14.30;73.40
546;DHT22;259;53.304;9.816;2023-05-07T09:18:21;14.30;73.40
546;DHT22;259;53.304;9.816;2023-05-07T09:20:47;14.30;73.40
546;DHT22;259;53.304;9.816;2023-05-07T09:23:12;14.30;73.50
546;DHT22;259;53.304;9.816;2023-05-07T09:25:39;14.30;73.40
546;DHT22;259;53.304;9.816;2023-05-07T09:28:05;14.30;73.40
546;DHT22;259;53.304;9.816;2023-05-07T09:30:35;14.30;73.20
546;DHT22;259;53.304;9.816;2023-05-07T09:33:02;14.30;73.40
546;DHT22;259;53.304;9.816;2023-05-07T09:35:29;14.30;73.20
546;DHT22;259;53.304;9.816;2023-05-07T09:37:56;14.30;73.40
546;DHT22;259;53.304;9.816;2023-05-07T09:40:30;14.30;73.70
546;DHT22;259;53.304;9.816;2023-05-07T09:42:56;14.30;73.40
546;DHT22;259;53.304;9.816;2023-05-07T09:45:34;14.40;74.20
546;DHT22;259;53.304;9.816;2023-05-07T09:48:00;14.40;73.50
546;DHT22;259;53.304;9.816;2023-05-07T09:50:35;14.40;73.70
546;DHT22;259;53.304;9.816;2023-05-07T09:53:03;14.40;73.50
546;DHT22;259;53.304;9.816;2023-05-07T09:55:29;14.40;73.70
546;DHT22;259;53.304;9.816;2023-05-07T09:57:55;14.40;73.90
546;DHT22;259;53.304;9.816;2023-05-07T10:00:21;14.40;73.50
546;DHT22;259;53.304;9.816;2023-05-07T10:02:49;14.40;73.60
546;DHT22;259;53.304;9.816;2023-05-07T10:05:18;14.40;73.50
546;DHT22;259;53.304;9.816;2023-05-07T10:07:45;14.40;73.60
546;DHT22;259;53.304;9.816;2023-05-07T10:10:11;14.40;73.60
546;DHT22;259;53.304;9.816;2023-05-07T10:12:38;14.40;73.80
546;DHT22;259;53.304;9.816;2023-05-07T10:15:06;14.40;73.70
546;DHT22;259;53.304;9.816;2023-05-07T10:17:39;14.50;73.90
546;DHT22;259;53.304;9.816;2023-05-07T10:20:07;14.50;73.80
546;DHT22;259;53.304;9.816;2023-05-07T10:22:39;14.50;73.70
546;DHT22;259;53.304;9.816;2023-05-07T10:25:18;14.50;73.70
546;DHT22;259;53.304;9.816;2023-05-07T10:27:50;14.50;73.70
546;DHT22;259;53.304;9.816;2023-05-07T10:30:48;14.50;73.60
546;DHT22;259;53.304;9.816;2023-05-07T10:33:24;14.50;73.90
546;DHT22;259;53.304;9.816;2023-05-07T10:35:57;14.50;73.50
546;DHT22;259;53.304;9.816;2023-05-07T10:38:24;14.50;73.60
546;DHT22;259;53.304;9.816;2023-05-07T10:40:51;14.50;73.90
546;DHT22;259;53.304;9.816;2023-05-07T10:43:17;14.50;74.00
546;DHT22;259;53.304;9.816;2023-05-07T10:45:43;14.50;74.00
546;DHT22;259;53.304;9.816;2023-05-07T10:48:13;14.50;74.00
546;DHT22;259;53.304;9.816;2023-05-07T10:50:41;14.60;74.10
546;DHT22;259;53.304;9.816;2023-05-07T10:55:51;14.60;73.80
546;DHT22;259;53.304;9.816;2023-05-07T10:58:25;14.60;73.70
546;DHT22;259;53.304;9.816;2023-05-07T11:00:59;14.60;73.70
546;DHT22;259;53.304;9.816;2023-05-07T11:03:27;14.70;73.60
546;DHT22;259;53.304;9.816;2023-05-07T11:06:13;14.70;73.50
546;DHT22;259;53.304;9.816;2023-05-07T11:11:45;14.70;73.50
546;DHT22;259;53.304;9.816;2023-05-07T11:14:43;14.70;73.40
546;DHT22;259;53.304;9.816;2023-05-07T11:17:10;14.70;73.20
546;DHT22;259;53.304;9.816;2023-05-07T11:19:53;14.70;73.20
546;DHT22;259;53.304;9.816;2023-05-07T11:25:04;14.80;73.30
546;DHT22;259;53.304;9.816;2023-05-07T11:27:32;14.80;73.20
546;DHT22;259;53.304;9.816;2023-05-07T11:29:58;14.80;73.10
546;DHT22;259;53.304;9.816;2023-05-07T11:32:25;14.80;73.00
546;DHT22;259;53.304;9.816;2023-05-07T11:34:57;14.80;73.00
546;DHT22;259;53.304;9.816;2023-05-07T11:37:24;14.90;73.00
546;DHT22;259;53.304;9.816;2023-05-07T11:39:50;14.90;73.00
546;DHT22;259;53.304;9.816;2023-05-07T11:42:33;14.90;73.00
546;DHT22;259;53.304;9.816;2023-05-07T11:45:00;14.90;73.00
546;DHT22;259;53.304;9.816;2023-05-07T11:47:30;14.90;72.90
546;DHT22;259;53.304;9.816;2023-05-07T11:49:56;15.00;73.00
546;DHT22;259;53.304;9.816;2023-05-07T11:52:23;15.00;73.00
546;DHT22;259;53.304;9.816;2023-05-07T11:54:56;15.00;72.90
546;DHT22;259;53.304;9.816;2023-05-07T11:57:24;15.00;72.90
546;DHT22;259;53.304;9.816;2023-05-07T11:59:53;15.00;72.90
546;DHT22;259;53.304;9.816;2023-05-07T12:02:23;15.00;72.80
546;DHT22;259;53.304;9.816;2023-05-07T12:04:50;15.00;72.80
546;DHT22;259;53.304;9.816;2023-05-07T12:07:17;15.00;72.80
546;DHT22;259;53.304;9.816;2023-05-07T12:09:44;15.10;72.90
546;DHT22;259;53.304;9.816;2023-05-07T12:12:11;15.10;72.90
546;DHT22;259;53.304;9.816;2023-05-07T12:14:42;15.10;72.90
546;DHT22;259;53.304;9.816;2023-05-07T12:17:09;15.10;72.90
546;DHT22;259;53.304;9.816;2023-05-07T12:19:37;15.20;72.90
546;DHT22;259;53.304;9.816;2023-05-07T12:22:04;15.20;72.90
546;DHT22;259;53.304;9.816;2023-05-07T12:24:46;15.20;72.90
546;DHT22;259;53.304;9.816;2023-05-07T12:27:21;15.20;72.90
546;DHT22;259;53.304;9.816;2023-05-07T12:29:47;15.30;73.00
546;DHT22;259;53.304;9.816;2023-05-07T12:32:17;15.30;73.00
546;DHT22;259;53.304;9.816;2023-05-07T12:34:44;15.30;73.00
546;DHT22;259;53.304;9.816;2023-05-07T12:37:11;15.30;73.00
546;DHT22;259;53.304;9.816;2023-05-07T12:39:38;15.30;73.20
546;DHT22;259;53.304;9.816;2023-05-07T12:42:20;15.30;73.20
546;DHT22;259;53.304;9.816;2023-05-07T12:44:51;15.40;73.30
546;DHT22;259;53.304;9.816;2023-05-07T12:47:17;15.40;73.20
546;DHT22;259;53.304;9.816;2023-05-07T12:49:43;15.40;73.10
546;DHT22;259;53.304;9.816;2023-05-07T12:52:11;15.40;73.10
546;DHT22;259;53.304;9.816;2023-05-07T12:54:38;15.40;73.10
546;DHT22;259;53.304;9.816;2023-05-07T12:57:09;15.50;73.20
546;DHT22;259;53.304;9.816;2023-05-07T12:59:37;15.50;73.20
546;DHT22;259;53.304;9.816;2023-05-07T13:02:04;15.50;73.20
546;DHT22;259;53.304;9.816;2023-05-07T13:04:30;15.50;73.30
546;DHT22;259;53.304;9.816;2023-05-07T13:06:56;15.50;73.10
546;DHT22;259;53.304;9.816;2023-05-07T13:09:21;15.60;73.40
546;DHT22;259;53.304;9.816;2023-05-07T13:11:47;15.60;73.40
546;DHT22;259;53.304;9.816;2023-05-07T13:14:13;15.60;73.40
546;DHT22;259;53.304;9.816;2023-05-07T13:16:38;15.70;73.40
546;DHT22;259;53.304;9.816;2023-05-07T13:19:04;15.70;73.40
546;DHT22;259;53.304;9.816;2023-05-07T13:21:30;15.80;73.50
546;DHT22;259;53.304;9.816;2023-05-07T13:23:57;15.80;73.30
546;DHT22;259;53.304;9.816;2023-05-07T13:26:23;15.90;73.30
546;DHT22;259;53.304;9.816;2023-05-07T13:28:50;15.90;73.10
546;DHT22;259;53.304;9.816;2023-05-07T13:31:16;16.00;74.20
546;DHT22;259;53.304;9.816;2023-05-07T13:33:42;16.10;74.30
546;DHT22;259;53.304;9.816;2023-05-07T13:36:08;16.10;74.20
546;DHT22;259;53.304;9.816;2023-05-07T13:38:34;16.20;74.30
546;DHT22;259;53.304;9.816;2023-05-07T13:41:00;16.20;74.10
546;DHT22;259;53.304;9.816;2023-05-07T13:43:26;16.20;74.00
546;DHT22;259;53.304;9.816;2023-05-07T13:45:52;16.20;74.00
546;DHT22;259;53.304;9.816;2023-05-07T13:48:17;16.20;73.90
546;DHT22;259;53.304;9.816;2023-05-07T13:50:43;16.20;74.00
546;DHT22;259;53.304;9.816;2023-05-07T13:53:09;16.20;74.10
546;DHT22;259;53.304;9.816;2023-05-07T13:55:35;16.20;74.00
546;DHT22;259;53.304;9.816;2023-05-07T13:58:01;16.20;74.20
546;DHT22;259;53.304;9.816;2023-05-07T14:00:28;16.20;74.20
546;DHT22;259;53.304;9.816;2023-05-07T14:02:55;16.20;74.10
546;DHT22;259;53.304;9.816;2023-05-07T14:05:21;16.30;74.20
546;DHT22;259;53.304;9.816;2023-05-07T14:07:51;16.30;74.20
546;DHT22;259;53.304;9.816;2023-05-07T14:10:17;16.30;74.30
546;DHT22;259;53.304;9.816;2023-05-07T14:12:44;16.30;74.20
546;DHT22;259;53.304;9.816;2023-05-07T14:15:11;16.30;74.30
546;DHT22;259;53.304;9.816;2023-05-07T14:17:37;16.30;74.30
546;DHT22;259;53.304;9.816;2023-05-07T14:20:03;16.40;74.30
546;DHT22;259;53.304;9.816;2023-05-07T14:22:29;16.40;74.00
546;DHT22;259;53.304;9.816;2023-05-07T14:24:55;16.40;74.00
546;DHT22;259;53.304;9.816;2023-05-07T14:27:20;16.40;74.00
546;DHT22;259;53.304;9.816;2023-05-07T14:29:46;16.40;73.80
546;DHT22;259;53.304;9.816;2023-05-07T14:32:17;16.40;73.90
546;DHT22;259;53.304;9.816;2023-05-07T14:34:43;16.40;74.10
546;DHT22;259;53.304;9.816;2023-05-07T14:37:10;16.40;74.00
546;DHT22;259;53.304;9.816;2023-05-07T14:39:35;16.40;74.10
546;DHT22;259;53.304;9.816;2023-05-07T14:42:01;16.40;74.10
546;DHT22;259;53.304;9.816;2023-05-07T14:44:27;16.40;74.10
546;DHT22;259;53.304;9.816;2023-05-07T14:46:53;16.40;74.20
546;DHT22;259;53.304;9.816;2023-05-07T14:49:19;16.40;74.10
546;DHT22;259;53.304;9.816;2023-05-07T14:51:45;16.40;74.20
546;DHT22;259;53.304;9.816;2023-05-07T14:54:12;16.40;74.10
546;DHT22;259;53.304;9.816;2023-05-07T14:56:39;16.40;74.70
546;DHT22;259;53.304;9.816;2023-05-07T14:59:05;16.40;74.60
546;DHT22;259;53.304;9.816;2023-05-07T15:01:31;16.50;74.60
546;DHT22;259;53.304;9.816;2023-05-07T15:03:57;16.50;74.70
546;DHT22;259;53.304;9.816;2023-05-07T15:06:22;16.50;74.80
546;DHT22;259;53.304;9.816;2023-05-07T15:08:49;16.50;74.80
546;DHT22;259;53.304;9.816;2023-05-07T15:11:14;16.50;74.80
546;DHT22;259;53.304;9.816;2023-05-07T15:13:42;16.50;74.90
546;DHT22;259;53.304;9.816;2023-05-07T15:16:08;16.50;74.70
546;DHT22;259;53.304;9.816;2023-05-07T15:18:33;16.50;74.70
546;DHT22;259;53.304;9.816;2023-05-07T15:20:59;16.50;74.70
546;DHT22;259;53.304;9.816;2023-05-07T15:23:25;16.50;74.60
546;DHT22;259;53.304;9.816;2023-05-07T15:25:51;16.50;74.70
546;DHT22;259;53.304;9.816;2023-05-07T15:28:18;16.50;74.70
546;DHT22;259;53.304;9.816;2023-05-07T15:30:43;16.50;74.70
546;DHT22;259;53.304;9.816;2023-05-07T15:33:09;16.60;74.70
546;DHT22;259;53.304;9.816;2023-05-07T15:35:35;16.60;74.70
546;DHT22;259;53.304;9.816;2023-05-07T15:38:01;16.60;74.70
546;DHT22;259;53.304;9.816;2023-05-07T15:40:28;16.70;74.90
546;DHT22;259;53.304;9.816;2023-05-07T15:42:55;16.70;76.10
546;DHT22;259;53.304;9.816;2023-05-07T15:45:22;16.80;75.50
546;DHT22;259;53.304;9.816;2023-05-07T15:47:48;16.90;75.10
546;DHT22;259;53.304;9.816;2023-05-07T15:50:14;16.90;75.00
546;DHT22;259;53.304;9.816;2023-05-07T15:52:40;16.90;74.70
546;DHT22;259;53.304;9.816;2023-05-07T15:55:07;16.90;74.70
546;DHT22;259;53.304;9.816;2023-05-07T15:57:34;17.00;74.70
546;DHT22;259;53.304;9.816;2023-05-07T16:00:00;17.00;75.50
546;DHT22;259;53.304;9.816;2023-05-07T16:02:28;17.00;74.60
546;DHT22;259;53.304;9.816;2023-05-07T16:04:53;17.10;74.70
546;DHT22;259;53.304;9.816;2023-05-07T16:07:19;17.10;74.60
546;DHT22;259;53.304;9.816;2023-05-07T16:09:45;17.10;74.60
546;DHT22;259;53.304;9.816;2023-05-07T16:12:10;17.10;74.50
546;DHT22;259;53.304;9.816;2023-05-07T16:14:37;17.10;74.50
546;DHT22;259;53.304;9.816;2023-05-07T16:17:02;17.10;74.50
546;DHT22;259;53.304;9.816;2023-05-07T16:19:28;17.10;74.30
546;DHT22;259;53.304;9.816;2023-05-07T16:21:54;17.10;74.40
546;DHT22;259;53.304;9.816;2023-05-07T16:24:20;17.10;74.60
546;DHT22;259;53.304;9.816;2023-05-07T16:26:46;17.10;74.40
546;DHT22;259;53.304;9.816;2023-05-07T16:29:11;17.10;74.60
546;DHT22;259;53.304;9.816;2023-05-07T16:31:37;17.10;74.40
546;DHT22;259;53.304;9.816;2023-05-07T16:34:03;17.10;74.60
546;DHT22;259;53.304;9.816;2023-05-07T16:36:29;17.10;74.60
546;DHT22;259;53.304;9.816;2023-05-07T16:38:55;17.10;74.90
546;DHT22;259;53.304;9.816;2023-05-07T16:41:21;17.00;74.70
546;DHT22;259;53.304;9.816;2023-05-07T16:43:47;17.00;74.70